Fort Davis, TX

3:04 AM CST on February 07, 2016 (GMT -0600)
FA Ranch Limpia Crossing | | Change Station
CLOSE
Current Station
Personal Weather Station
Location: Fort Davis, TX
Elevation: 5262 ft
Nearby Weather Stations

Elev 5262 ft 30.62 °N, 103.97 °W | Updated 11 minutes ago

Mostly Cloudy
Mostly Cloudy
48.0 °F
Feels Like 40 °F
N
22.7
Wind Variable Wind from West

Today
High -- | Low -- °F
--% Chance of Precip.
Yesterday
High -- | Low -- °F
Precip. -- in
Pressure 30.32 in
Visibility 10.0 miles
Clouds Clear
Windchill 40 °F
Dew Point -0 °F
Humidity 13%
Rainfall 0.00 in
Snow Depth Not available.
7:43 AM 6:36 PM
Waning Crescent, 2% visible
METAR KMRF 070856Z AUTO 00000KT 10SM CLR M08/M15 A3031 RMK AO2 SLP266 T10781150 58011 FZRANO
Pressure 30.32 in
Visibility 10.0 miles
Clouds Clear
Windchill 40 °F
Dew Point -0 °F
Humidity 13%
Rainfall 0.00 in
Snow Depth Not available.
7:43 AM 6:36 PM
Waning Crescent, 2% visible
METAR KMRF 070856Z AUTO 00000KT 10SM CLR M08/M15 A3031 RMK AO2 SLP266 T10781150 58011 FZRANO

10-Day Weather Forecast

Almanac

Astronomy

Feb. 07, 2016 Rise Set
Actual Time
Civil Twilight
Nautical Twilight
Astronomical Twilight
Moon
Length of Visible Light
Length of Day
Tomorrow will be .
, % of the Moon is Illuminated

Today's Extremes

State Highs State Lows

Community

WunderPhotos

Upload Photos

1,891,171 photos uploaded!

WunderBlog® & News

Nearby

Air Quality

  Air Quality AQ Index Pollutant
Not available.

Snow Depth

Station Depth Elevation

Earthquake Activity

City Distance Mag. Time & Date
Minimum magnitude displayed is 2.5.

Coastal Water Temperatures

Place Temperature

Stations

Nearby Weather Stations

Station Location Temp. Windchill Dew Point Humidity Wind Precip. Elev Updated Type
                   

Watches & Warnings

There are currently no watches in effect.